Time;durP1;ratioP1;P1;durP2;ratioP2;P2;SDS_P1;SDS_P2;PMS_P1;PMS_P2;Temp;Humidity;BMP_temperature;BMP_pressure;BME280_temperature;BME280_humidity;BME280_pressure;Samples;Min_cycle;Max_cycle;Signal;HPM_P1;HPM_P2
2021/11/10 00:00:46;;;;;;;47.30;25.95;;;5.80;99.90;;;;;;5039524;28;20056;-88
2021/11/10 00:03:12;;;;;;;45.63;25.50;;;5.80;99.90;;;;;;5075456;28;20024;-87
2021/11/10 00:05:40;;;;;;;45.15;25.45;;;5.90;99.90;;;;;;5075038;28;20033;-87
2021/11/10 00:08:06;;;;;;;45.22;25.52;;;6.20;99.90;;;;;;5057315;28;20464;-88
2021/11/10 00:10:32;;;;;;;43.55;23.75;;;5.90;99.90;;;;;;5036903;28;20036;-87
2021/11/10 00:15:44;;;;;;;51.28;28.52;;;6.20;99.90;;;;;;5065837;28;20028;-88
2021/11/10 00:18:09;;;;;;;55.45;28.90;;;5.80;99.90;;;;;;5051105;28;20057;-88
2021/11/10 00:20:35;;;;;;;47.80;25.98;;;6.20;99.90;;;;;;5049891;28;20056;-88
2021/11/10 00:23:01;;;;;;;44.88;25.20;;;5.80;99.90;;;;;;5037339;28;20021;-87
2021/11/10 00:25:26;;;;;;;59.47;30.10;;;5.90;99.90;;;;;;5061081;28;20131;-88
2021/11/10 00:27:52;;;;;;;71.47;37.10;;;5.80;99.90;;;;;;5066469;28;20021;-89
2021/11/10 00:30:18;;;;;;;60.00;32.03;;;5.70;99.90;;;;;;5075177;28;20442;-88
2021/11/10 00:32:43;;;;;;;63.35;33.83;;;5.60;99.90;;;;;;5073848;28;20469;-88
2021/11/10 00:35:09;;;;;;;59.38;32.15;;;5.80;99.90;;;;;;5053601;28;20028;-87
2021/11/10 00:37:35;;;;;;;46.55;26.75;;;5.60;99.90;;;;;;5054294;28;20409;-88
2021/11/10 00:40:00;;;;;;;46.70;25.65;;;5.50;99.90;;;;;;5062846;28;20477;-88
2021/11/10 00:42:26;;;;;;;47.08;26.17;;;5.60;99.90;;;;;;5051981;28;20378;-88
2021/11/10 00:44:51;;;;;;;55.38;30.33;;;6.00;99.90;;;;;;5036747;28;20052;-88
2021/11/10 00:47:17;;;;;;;47.63;25.38;;;5.70;99.90;;;;;;5036258;28;20119;-89
2021/11/10 00:49:43;;;;;;;43.22;24.05;;;5.70;99.90;;;;;;5050775;28;20033;-88
2021/11/10 00:52:08;;;;;;;50.03;26.48;;;6.10;99.90;;;;;;5056780;28;20033;-88
2021/11/10 00:54:34;;;;;;;44.92;25.77;;;5.60;99.90;;;;;;5057863;28;20033;-87
2021/11/10 00:57:00;;;;;;;48.10;27.38;;;5.70;99.90;;;;;;5036316;28;20079;-88
2021/11/10 00:59:26;;;;;;;50.08;27.92;;;5.70;99.90;;;;;;5054641;28;20041;-88
2021/11/10 01:01:52;;;;;;;45.13;25.92;;;5.70;99.90;;;;;;5051943;28;20594;-88
2021/11/10 01:04:18;;;;;;;46.00;25.83;;;6.00;99.90;;;;;;5047913;28;20028;-88
2021/11/10 01:06:43;;;;;;;43.50;24.17;;;5.70;99.90;;;;;;5045783;28;20099;-88
2021/11/10 01:09:16;;;;;;;42.97;24.92;;;5.60;99.90;;;;;;5031037;28;20033;-88
2021/11/10 01:11:42;;;;;;;59.65;30.98;;;5.70;99.90;;;;;;5017005;28;20060;-87
2021/11/10 01:14:07;;;;;;;46.33;25.67;;;6.10;99.90;;;;;;5036151;28;20490;-88
2021/11/10 01:16:33;;;;;;;50.42;27.83;;;5.70;99.90;;;;;;5053110;28;20020;-88
2021/11/10 01:18:58;;;;;;;50.10;26.50;;;5.70;99.90;;;;;;5058549;28;20560;-88
2021/11/10 01:21:24;;;;;;;55.67;28.35;;;5.60;99.90;;;;;;5052260;28;20039;-88
2021/11/10 01:23:50;;;;;;;53.60;29.02;;;5.60;99.90;;;;;;5051203;28;20021;-88
2021/11/10 01:26:15;;;;;;;54.90;28.60;;;5.70;99.90;;;;;;5034123;28;20029;-88
2021/11/10 01:28:41;;;;;;;71.63;35.65;;;5.60;99.90;;;;;;5033931;28;20025;-88
2021/11/10 01:31:07;;;;;;;73.18;37.38;;;5.70;99.90;;;;;;5042910;28;21045;-87
2021/11/10 01:33:33;;;;;;;134.30;61.53;;;5.70;99.90;;;;;;5064059;28;20119;-88
2021/11/10 01:35:59;;;;;;;72.93;40.13;;;5.60;99.90;;;;;;5070501;28;20032;-88
2021/11/10 01:38:24;;;;;;;99.10;51.78;;;5.60;99.90;;;;;;5067874;28;20434;-87
2021/11/10 01:40:51;;;;;;;52.70;27.88;;;5.80;99.90;;;;;;5053268;28;20154;-88
2021/11/10 01:43:17;;;;;;;51.50;27.60;;;5.60;99.90;;;;;;5052667;28;20044;-88
2021/11/10 01:45:43;;;;;;;51.17;27.55;;;5.70;99.90;;;;;;5058815;28;20021;-88
2021/11/10 01:48:09;;;;;;;55.58;29.63;;;5.70;99.90;;;;;;5068878;28;20104;-87
2021/11/10 01:50:35;;;;;;;100.05;50.85;;;5.80;99.90;;;;;;5053704;28;20060;-89
2021/11/10 01:53:01;;;;;;;54.60;28.75;;;5.70;99.90;;;;;;5035522;28;20040;-88
2021/11/10 01:55:27;;;;;;;70.80;32.03;;;5.70;99.90;;;;;;5037996;28;20034;-88
2021/11/10 01:57:53;;;;;;;55.45;29.30;;;5.70;99.90;;;;;;5020690;28;20135;-88
2021/11/10 02:00:29;;;;;;;55.30;27.80;;;5.70;99.90;;;;;;5072823;28;20107;-87
2021/11/10 02:02:55;;;;;;;93.05;48.20;;;5.70;99.90;;;;;;5071678;28;20025;-88
2021/11/10 02:05:21;;;;;;;112.80;54.33;;;5.70;99.90;;;;;;5053505;28;20028;-88
2021/11/10 02:07:47;;;;;;;72.03;34.65;;;5.60;99.90;;;;;;5053330;28;20222;-88
2021/11/10 02:10:17;;;;;;;53.35;28.08;;;5.70;99.90;;;;;;5058038;28;20048;-88
2021/11/10 02:12:43;;;;;;;72.82;35.55;;;5.70;99.90;;;;;;5065253;28;20033;-88
2021/11/10 02:15:11;;;;;;;58.83;28.02;;;5.60;99.90;;;;;;5068164;28;20098;-88
2021/11/10 02:17:37;;;;;;;60.08;29.75;;;5.70;99.90;;;;;;5052721;28;20025;-89
2021/11/10 02:20:08;;;;;;;55.97;27.60;;;5.60;99.90;;;;;;5057701;28;20017;-87
2021/11/10 02:22:35;;;;;;;57.13;28.17;;;5.60;99.90;;;;;;5056585;28;20025;-88
2021/11/10 02:25:02;;;;;;;61.38;32.83;;;5.60;99.90;;;;;;5041256;28;20034;-88
2021/11/10 02:27:34;;;;;;;50.78;26.73;;;5.70;99.90;;;;;;5015619;28;20578;-88
2021/11/10 02:30:01;;;;;;;52.33;26.45;;;5.70;99.90;;;;;;5068998;28;20032;-87
2021/11/10 02:32:26;;;;;;;78.20;38.50;;;5.80;99.90;;;;;;5052922;28;20037;-89
2021/11/10 02:34:52;;;;;;;69.60;34.55;;;5.70;99.90;;;;;;5063551;28;20028;-88
2021/11/10 02:37:21;;;;;;;64.53;32.40;;;5.70;99.90;;;;;;5059197;28;20025;-86
2021/11/10 02:39:49;;;;;;;66.85;32.90;;;5.70;99.90;;;;;;5046801;28;20090;-89
2021/11/10 02:42:16;;;;;;;64.82;31.52;;;5.90;99.90;;;;;;5050155;28;20116;-88
2021/11/10 02:44:45;;;;;;;51.17;26.92;;;5.70;99.90;;;;;;5070185;28;20023;-88
2021/11/10 02:47:11;;;;;;;52.88;26.10;;;5.70;99.90;;;;;;5052542;28;20036;-88
2021/11/10 02:49:37;;;;;;;51.22;25.88;;;5.70;99.90;;;;;;5061059;28;20028;-88
2021/11/10 02:52:05;;;;;;;54.08;25.75;;;5.70;99.90;;;;;;5041585;28;20045;-88
2021/11/10 02:54:34;;;;;;;57.35;26.55;;;5.70;99.90;;;;;;5053978;28;20489;-88
2021/11/10 02:57:03;;;;;;;66.75;31.05;;;6.10;99.90;;;;;;5032454;28;20037;-87
2021/11/10 02:59:29;;;;;;;57.35;27.33;;;5.80;99.90;;;;;;5063913;28;20029;-89
2021/11/10 03:01:58;;;;;;;67.00;31.05;;;5.80;99.90;;;;;;5046711;28;20550;-89
2021/11/10 03:04:42;;;;;;;57.35;27.23;;;5.70;99.90;;;;;;5034956;28;20112;-88
2021/11/10 03:07:08;;;;;;;61.42;27.90;;;5.60;99.90;;;;;;5053084;28;20079;-88
2021/11/10 03:09:35;;;;;;;55.42;27.08;;;5.60;99.90;;;;;;5044415;28;20029;-88
2021/11/10 03:12:02;;;;;;;52.95;26.60;;;5.50;99.90;;;;;;5018373;28;20041;-88
2021/11/10 03:14:29;;;;;;;54.13;27.10;;;5.50;99.90;;;;;;5036692;28;20355;-87
2021/11/10 03:16:56;;;;;;;53.85;26.40;;;5.40;99.90;;;;;;5049231;28;20119;-88
2021/11/10 03:19:22;;;;;;;58.88;27.40;;;5.90;99.90;;;;;;5076762;28;20070;-88
2021/11/10 03:21:47;;;;;;;56.10;26.63;;;5.50;99.90;;;;;;5039115;28;20033;-88
2021/11/10 03:24:14;;;;;;;59.38;28.33;;;5.50;99.90;;;;;;5040164;28;20032;-88
2021/11/10 03:26:40;;;;;;;60.83;27.63;;;5.50;99.90;;;;;;5072295;28;20024;-89
2021/11/10 03:29:06;;;;;;;52.25;26.92;;;5.50;99.90;;;;;;5036948;28;20057;-88
2021/11/10 03:31:34;;;;;;;55.33;27.17;;;5.50;99.90;;;;;;5033012;28;20102;-89
2021/11/10 03:34:01;;;;;;;50.53;26.13;;;5.50;99.90;;;;;;5038495;28;20116;-89
2021/11/10 03:36:27;;;;;;;52.58;26.85;;;5.50;99.90;;;;;;5030283;28;20025;-89
2021/11/10 03:38:53;;;;;;;53.75;26.80;;;5.50;99.90;;;;;;5074465;28;20024;-88
2021/11/10 03:41:19;;;;;;;59.50;26.45;;;5.50;99.90;;;;;;5075899;28;20082;-88
2021/11/10 03:43:45;;;;;;;50.58;26.00;;;5.50;99.90;;;;;;5058281;28;20079;-88
2021/11/10 03:46:11;;;;;;;50.00;26.75;;;5.60;99.90;;;;;;5063789;28;20477;-88
2021/11/10 03:48:37;;;;;;;56.47;27.55;;;5.70;99.90;;;;;;5040377;28;20087;-88
2021/11/10 03:51:03;;;;;;;55.15;26.85;;;5.70;99.90;;;;;;5018154;28;20025;-89
2021/11/10 03:53:28;;;;;;;51.17;26.15;;;5.50;99.90;;;;;;5036278;28;20080;-89
2021/11/10 03:55:54;;;;;;;56.17;26.05;;;5.50;99.90;;;;;;5018140;28;20021;-88
2021/11/10 03:58:20;;;;;;;56.55;25.73;;;5.40;99.90;;;;;;5035989;28;20049;-88
2021/11/10 04:00:45;;;;;;;54.08;25.55;;;5.50;99.90;;;;;;5035693;28;20061;-89
2021/11/10 04:03:11;;;;;;;59.00;27.70;;;5.60;99.90;;;;;;5022064;28;20017;-89
2021/11/10 04:05:37;;;;;;;52.45;25.35;;;5.50;99.90;;;;;;5053681;28;20394;-88
2021/11/10 04:08:03;;;;;;;53.40;26.50;;;5.50;99.90;;;;;;5054387;28;20026;-89
2021/11/10 04:10:28;;;;;;;58.08;27.67;;;5.50;99.90;;;;;;5036455;28;20040;-88
2021/11/10 04:12:54;;;;;;;50.85;26.33;;;5.40;99.90;;;;;;5055712;28;20033;-88
2021/11/10 04:15:20;;;;;;;55.67;25.98;;;5.50;99.90;;;;;;5054312;28;20021;-88
2021/11/10 04:17:46;;;;;;;56.63;26.35;;;5.40;99.90;;;;;;5055428;28;20031;-88
2021/11/10 04:20:11;;;;;;;57.15;25.80;;;5.40;99.90;;;;;;5061684;28;20388;-88
2021/11/10 04:22:37;;;;;;;50.28;24.63;;;5.70;99.90;;;;;;5057007;28;20044;-88
2021/11/10 04:25:04;;;;;;;54.95;24.45;;;5.40;99.90;;;;;;5053156;28;20029;-88
2021/11/10 04:27:29;;;;;;;47.95;23.25;;;5.40;99.90;;;;;;5055573;28;20032;-89
2021/11/10 04:29:55;;;;;;;53.50;24.55;;;6.00;99.90;;;;;;5056431;28;20452;-88
2021/11/10 04:32:22;;;;;;;50.78;24.33;;;5.50;99.90;;;;;;5075543;28;20121;-88
2021/11/10 04:34:47;;;;;;;45.88;23.58;;;5.50;99.90;;;;;;5039399;28;20033;-89
2021/11/10 04:37:15;;;;;;;47.55;23.30;;;5.60;99.90;;;;;;5035736;28;20116;-88
2021/11/10 04:39:41;;;;;;;42.65;22.50;;;5.70;99.90;;;;;;5020666;28;20025;-89
2021/11/10 04:42:09;;;;;;;47.67;23.83;;;5.50;99.90;;;;;;5069395;28;20551;-87
2021/11/10 04:44:35;;;;;;;47.92;23.45;;;5.50;99.90;;;;;;5070742;28;20035;-89
2021/11/10 04:47:01;;;;;;;48.08;24.17;;;6.00;99.90;;;;;;5035017;28;20522;-89
2021/11/10 04:49:29;;;;;;;49.10;23.75;;;5.60;99.90;;;;;;5050317;28;20131;-89
2021/11/10 04:51:58;;;;;;;48.75;23.83;;;5.60;99.90;;;;;;5056295;28;20044;-89
2021/11/10 04:54:29;;;;;;;47.83;23.40;;;5.50;99.90;;;;;;5067985;28;20040;-88
2021/11/10 04:56:59;;;;;;;51.40;25.63;;;5.60;99.90;;;;;;5051516;28;20052;-89
2021/11/10 04:59:25;;;;;;;49.40;23.95;;;5.50;99.90;;;;;;5034706;28;20124;-88
2021/11/10 05:04:36;;;;;;;43.38;22.70;;;5.60;99.90;;;;;;5040438;28;20024;-89
2021/11/10 05:07:03;;;;;;;43.15;22.45;;;5.50;99.90;;;;;;5035105;28;20486;-88
2021/11/10 05:09:29;;;;;;;43.78;21.58;;;5.60;99.90;;;;;;5034584;28;20029;-88
2021/11/10 05:11:56;;;;;;;38.63;21.42;;;5.70;99.90;;;;;;5037642;28;20040;-88
2021/11/10 05:14:22;;;;;;;42.10;22.17;;;5.70;99.90;;;;;;5054465;28;20040;-88
2021/11/10 05:16:48;;;;;;;46.92;23.33;;;5.70;99.90;;;;;;5065253;28;20112;-88
2021/11/10 05:19:14;;;;;;;46.80;24.02;;;5.60;99.90;;;;;;5061867;28;20025;-88
2021/11/10 05:21:40;;;;;;;45.45;23.60;;;5.70;99.90;;;;;;5053919;28;20021;-88
2021/11/10 05:24:05;;;;;;;48.38;23.88;;;5.70;99.90;;;;;;5074152;28;20082;-89
2021/11/10 05:26:32;;;;;;;45.97;24.23;;;5.60;99.90;;;;;;5073921;28;20029;-88
2021/11/10 05:28:58;;;;;;;68.88;36.45;;;5.70;99.90;;;;;;5052008;28;20043;-88
2021/11/10 05:31:24;;;;;;;53.20;27.67;;;5.60;99.90;;;;;;5073917;28;20016;-89
2021/11/10 05:33:50;;;;;;;54.65;26.60;;;5.70;99.90;;;;;;5055010;28;20028;-88
2021/11/10 05:36:16;;;;;;;58.53;26.63;;;5.90;99.90;;;;;;5070606;28;20028;-88
2021/11/10 05:38:42;;;;;;;46.17;25.60;;;6.00;99.90;;;;;;5073548;28;20028;-88
2021/11/10 05:41:07;;;;;;;48.38;24.75;;;5.60;99.90;;;;;;5073970;28;20028;-88
2021/11/10 05:43:34;;;;;;;50.25;24.90;;;5.50;99.90;;;;;;5073494;28;20074;-89
2021/11/10 05:46:00;;;;;;;46.67;23.52;;;5.60;99.90;;;;;;5055534;28;20564;-88
2021/11/10 05:48:25;;;;;;;48.55;24.20;;;6.10;99.90;;;;;;5073858;28;20040;-89
2021/11/10 05:50:52;;;;;;;45.20;23.50;;;5.60;99.90;;;;;;5069247;28;20024;-89
2021/11/10 05:53:18;;;;;;;41.47;22.38;;;6.20;99.90;;;;;;5033904;28;20069;-88
2021/11/10 05:55:44;;;;;;;43.55;22.02;;;5.60;99.90;;;;;;5035009;28;20486;-89
2021/11/10 05:58:11;;;;;;;40.47;22.08;;;5.50;99.90;;;;;;5060525;28;20052;-88
2021/11/10 06:00:37;;;;;;;47.08;24.23;;;5.70;99.90;;;;;;5055164;28;20536;-88
2021/11/10 06:03:03;;;;;;;42.83;21.95;;;5.70;99.90;;;;;;5033476;28;20109;-89
2021/11/10 06:05:28;;;;;;;42.88;22.27;;;5.60;99.90;;;;;;5033961;28;20025;-88
2021/11/10 06:07:55;;;;;;;43.97;21.98;;;5.70;99.90;;;;;;5038001;28;20435;-89
2021/11/10 06:10:21;;;;;;;45.05;24.05;;;5.70;99.90;;;;;;5055268;28;20024;-89
2021/11/10 06:12:47;;;;;;;46.50;23.58;;;5.70;99.90;;;;;;5055359;28;20527;-89
2021/11/10 06:15:13;;;;;;;41.97;22.42;;;5.90;99.90;;;;;;5072974;28;20495;-88
2021/11/10 06:17:39;;;;;;;47.70;24.73;;;5.80;99.90;;;;;;5073430;28;20656;-89
2021/11/10 06:20:06;;;;;;;46.22;24.73;;;5.70;99.90;;;;;;5053891;28;20033;-89
2021/11/10 06:22:33;;;;;;;48.83;23.77;;;5.70;99.90;;;;;;5053152;28;20024;-89
2021/11/10 06:24:59;;;;;;;43.05;22.85;;;5.70;99.90;;;;;;5073127;28;20024;-89
2021/11/10 06:27:26;;;;;;;46.22;24.55;;;5.70;99.90;;;;;;5065692;28;20029;-89
2021/11/10 06:29:52;;;;;;;48.38;24.15;;;5.70;99.90;;;;;;5049890;28;20036;-89
2021/11/10 06:32:18;;;;;;;44.97;23.38;;;5.80;99.90;;;;;;5033278;28;20046;-88
2021/11/10 06:34:44;;;;;;;47.22;25.02;;;5.70;99.90;;;;;;5062873;28;20078;-88
2021/11/10 06:37:10;;;;;;;47.13;25.02;;;5.90;99.90;;;;;;5040982;28;20025;-88
2021/11/10 06:39:35;;;;;;;43.70;23.63;;;5.70;99.90;;;;;;5025828;28;20118;-90
2021/11/10 06:42:02;;;;;;;47.03;23.65;;;5.70;99.90;;;;;;5034751;28;20114;-89
2021/11/10 06:44:28;;;;;;;47.15;23.60;;;5.60;99.90;;;;;;5063696;28;20169;-89
2021/11/10 06:46:54;;;;;;;49.28;24.75;;;5.60;99.90;;;;;;5072338;28;20021;-87
2021/11/10 06:49:19;;;;;;;49.40;25.50;;;5.60;99.90;;;;;;5072810;28;20040;-89
2021/11/10 06:51:45;;;;;;;48.70;25.02;;;6.00;99.90;;;;;;5063440;28;20086;-86
2021/11/10 06:54:13;;;;;;;45.83;24.95;;;6.10;99.90;;;;;;5046299;28;20053;-87
2021/11/10 06:56:38;;;;;;;45.90;23.17;;;6.00;99.90;;;;;;5065271;28;20020;-87
2021/11/10 06:59:04;;;;;;;50.17;24.35;;;5.70;99.90;;;;;;5056962;28;20098;-89
2021/11/10 07:01:30;;;;;;;41.53;21.70;;;5.80;99.90;;;;;;5066997;28;20035;-87
2021/11/10 07:03:56;;;;;;;47.47;22.75;;;5.70;99.90;;;;;;5072656;28;20120;-87
2021/11/10 07:06:22;;;;;;;42.10;21.08;;;5.70;99.90;;;;;;5072382;28;20100;-87
2021/11/10 07:08:48;;;;;;;44.65;23.30;;;5.80;99.90;;;;;;5067527;28;20025;-87
2021/11/10 07:11:13;;;;;;;44.25;22.38;;;5.80;99.90;;;;;;5069907;28;20480;-88
2021/11/10 07:13:39;;;;;;;43.20;21.92;;;6.30;99.90;;;;;;5036533;28;20056;-90
2021/11/10 07:16:04;;;;;;;42.75;21.70;;;5.70;99.90;;;;;;5058833;28;20123;-90
2021/11/10 07:18:31;;;;;;;43.35;22.55;;;5.70;99.90;;;;;;5057113;28;20030;-91
2021/11/10 07:20:56;;;;;;;40.92;20.75;;;5.70;99.90;;;;;;5036411;28;20026;-91
2021/11/10 07:23:22;;;;;;;38.67;19.70;;;5.60;99.90;;;;;;5053444;28;20024;-91
2021/11/10 07:25:48;;;;;;;37.88;20.27;;;5.70;99.90;;;;;;5035273;28;20029;-90
2021/11/10 07:28:14;;;;;;;38.38;20.50;;;5.80;99.90;;;;;;5033281;28;20032;-91
2021/11/10 07:30:40;;;;;;;41.40;20.52;;;6.50;99.90;;;;;;5033830;28;20033;-91
2021/11/10 07:33:07;;;;;;;37.72;20.60;;;6.20;99.90;;;;;;5036199;28;20033;-90
2021/11/10 07:35:34;;;;;;;39.97;23.20;;;6.30;99.90;;;;;;5070090;28;20029;-94
2021/11/10 07:38:00;;;;;;;36.13;19.85;;;6.10;99.90;;;;;;5065051;28;20033;-93
2021/11/10 07:40:26;;;;;;;36.97;19.95;;;6.40;99.90;;;;;;5057043;28;20029;-95
2021/11/10 07:42:53;;;;;;;35.75;19.30;;;6.40;99.90;;;;;;5058280;28;20024;-94
2021/11/10 07:45:30;;;;;;;34.42;17.83;;;6.00;99.90;;;;;;5070181;28;20090;-95
2021/11/10 07:47:56;;;;;;;37.72;20.42;;;6.10;99.90;;;;;;5069104;28;20051;-96
2021/11/10 07:50:23;;;;;;;36.95;19.23;;;6.50;99.90;;;;;;5017598;28;20026;-94
2021/11/10 07:52:51;;;;;;;32.95;19.08;;;6.40;99.90;;;;;;5050364;28;20037;-94
2021/11/10 07:55:17;;;;;;;32.58;17.73;;;6.40;99.90;;;;;;5040884;28;20018;-95
2021/11/10 07:57:42;;;;;;;33.47;18.45;;;6.70;99.90;;;;;;5046057;28;20055;-94
2021/11/10 08:00:11;;;;;;;38.88;20.83;;;6.70;99.90;;;;;;5053197;28;20044;-94
2021/11/10 08:02:37;;;;;;;38.33;21.13;;;6.30;99.90;;;;;;5075057;28;20058;-94
2021/11/10 08:05:04;;;;;;;41.38;22.42;;;6.90;99.90;;;;;;5066758;28;20021;-95
2021/11/10 08:07:30;;;;;;;33.50;18.23;;;6.30;99.90;;;;;;5070829;28;20088;-95
2021/11/10 08:09:56;;;;;;;33.45;19.30;;;6.80;99.90;;;;;;5050867;28;20059;-94
2021/11/10 08:12:21;;;;;;;33.85;18.55;;;6.30;99.90;;;;;;5049595;28;20405;-94
2021/11/10 08:14:49;;;;;;;34.05;20.45;;;6.70;99.90;;;;;;5071527;28;20036;-94
2021/11/10 08:17:15;;;;;;;37.80;21.40;;;6.30;99.90;;;;;;5074298;28;20485;-94
2021/11/10 08:19:40;;;;;;;37.33;21.33;;;5.90;99.90;;;;;;5052029;28;20078;-94
2021/11/10 08:22:06;;;;;;;38.35;20.27;;;6.10;99.90;;;;;;5070001;28;20389;-95
2021/11/10 08:24:32;;;;;;;42.10;21.95;;;5.90;99.90;;;;;;5070717;28;20056;-95
2021/11/10 08:26:58;;;;;;;36.45;19.77;;;5.90;99.90;;;;;;5069845;28;20036;-94
2021/11/10 08:29:24;;;;;;;42.05;23.80;;;6.10;99.90;;;;;;5075676;28;20032;-94
2021/11/10 08:31:51;;;;;;;40.80;22.02;;;6.20;99.90;;;;;;5069341;28;20029;-94
2021/11/10 08:34:17;;;;;;;40.50;21.70;;;6.20;99.90;;;;;;5051134;28;20032;-94
2021/11/10 08:36:42;;;;;;;36.55;21.00;;;6.00;99.90;;;;;;5050884;28;20025;-93
2021/11/10 08:39:09;;;;;;;44.42;25.48;;;6.30;99.90;;;;;;5067773;28;20437;-94
2021/11/10 08:41:35;;;;;;;49.72;27.50;;;6.40;99.90;;;;;;5074521;28;20465;-94
2021/11/10 08:44:02;;;;;;;59.67;32.42;;;6.40;99.90;;;;;;5069522;28;20028;-95
2021/11/10 08:46:28;;;;;;;43.08;23.15;;;6.50;99.90;;;;;;5067658;28;20048;-94
2021/11/10 08:48:57;;;;;;;45.53;24.45;;;6.90;99.90;;;;;;5050128;28;20488;-94
2021/11/10 08:51:23;;;;;;;56.97;31.45;;;6.40;99.90;;;;;;5069360;28;20064;-94
2021/11/10 08:53:49;;;;;;;48.38;27.10;;;6.50;99.90;;;;;;5070778;28;20466;-94
2021/11/10 08:56:16;;;;;;;57.90;32.03;;;6.40;99.90;;;;;;5073570;28;20017;-94
2021/11/10 08:58:42;;;;;;;55.25;28.38;;;6.30;99.90;;;;;;5068807;28;20052;-94
2021/11/10 09:01:07;;;;;;;49.63;27.17;;;6.20;99.90;;;;;;5049616;28;20024;-95
2021/11/10 09:03:33;;;;;;;48.30;25.52;;;6.20;99.90;;;;;;5067256;28;20158;-94
2021/11/10 09:05:59;;;;;;;59.40;30.88;;;6.00;99.90;;;;;;5050360;28;20405;-94
2021/11/10 09:08:27;;;;;;;53.80;28.35;;;6.00;99.90;;;;;;5073725;28;20028;-94
2021/11/10 09:10:53;;;;;;;46.47;24.75;;;6.00;99.90;;;;;;5069770;28;20032;-94
2021/11/10 09:13:20;;;;;;;61.70;31.23;;;6.20;99.90;;;;;;5058404;28;20044;-94
2021/11/10 09:15:45;;;;;;;50.03;25.63;;;6.10;99.90;;;;;;5067165;28;20035;-93
2021/11/10 09:18:12;;;;;;;59.47;29.08;;;6.20;99.90;;;;;;5068648;28;20029;-94
2021/11/10 09:20:39;;;;;;;50.75;26.05;;;6.20;99.90;;;;;;5073209;28;20033;-94
2021/11/10 09:23:07;;;;;;;67.95;32.65;;;6.50;99.90;;;;;;5060334;28;20108;-94
2021/11/10 09:25:34;;;;;;;46.55;25.67;;;6.60;99.90;;;;;;5068084;28;20032;-95
2021/11/10 09:28:03;;;;;;;39.38;20.35;;;6.90;99.90;;;;;;5051311;28;20082;-94
2021/11/10 09:30:29;;;;;;;40.45;20.90;;;6.60;99.90;;;;;;5067429;28;20028;-94
2021/11/10 09:32:57;;;;;;;45.85;22.13;;;6.80;99.90;;;;;;5051358;28;20048;-94
2021/11/10 09:35:25;;;;;;;46.03;22.98;;;6.20;99.90;;;;;;5056589;28;20028;-95
2021/11/10 09:37:52;;;;;;;41.28;21.75;;;6.30;99.90;;;;;;5050403;28;20063;-94
2021/11/10 09:40:23;;;;;;;37.22;19.92;;;6.20;99.90;;;;;;5067996;28;20032;-94
2021/11/10 09:42:49;;;;;;;37.38;19.67;;;6.50;99.90;;;;;;5050337;28;20028;-94
2021/11/10 09:45:19;;;;;;;40.60;21.52;;;6.00;99.90;;;;;;5066807;28;20017;-94
2021/11/10 09:47:45;;;;;;;35.92;18.73;;;5.90;99.90;;;;;;5053439;28;20028;-93
2021/11/10 09:50:14;;;;;;;35.33;18.60;;;5.90;99.90;;;;;;5049524;28;20021;-94
2021/11/10 09:52:41;;;;;;;37.75;20.02;;;6.50;99.90;;;;;;5063823;28;20037;-94
2021/11/10 09:55:09;;;;;;;35.30;19.58;;;6.30;99.90;;;;;;5068332;28;20035;-95
2021/11/10 09:57:35;;;;;;;38.38;20.63;;;5.80;99.90;;;;;;5050260;28;20036;-94
2021/11/10 10:00:07;;;;;;;35.63;18.85;;;5.80;99.90;;;;;;5048517;28;20028;-94
2021/11/10 10:02:33;;;;;;;38.85;19.42;;;6.00;99.90;;;;;;5066071;28;20028;-93
2021/11/10 10:04:59;;;;;;;38.20;19.17;;;6.00;99.90;;;;;;5068988;28;20039;-94
2021/11/10 10:07:26;;;;;;;35.88;18.42;;;6.00;99.90;;;;;;5067462;28;20059;-94
2021/11/10 10:09:52;;;;;;;33.20;18.38;;;6.10;99.90;;;;;;5048783;28;20554;-94
2021/11/10 10:12:18;;;;;;;34.78;19.48;;;6.00;99.90;;;;;;5065871;28;20123;-94
2021/11/10 10:14:49;;;;;;;34.85;19.30;;;6.10;99.90;;;;;;5052988;28;20473;-95
2021/11/10 10:17:32;;;;;;;40.00;21.58;;;6.20;99.90;;;;;;5070631;28;20040;-94
2021/11/10 10:19:58;;;;;;;32.17;18.10;;;6.50;99.90;;;;;;5068140;28;20029;-94
2021/11/10 10:22:24;;;;;;;30.98;19.05;;;6.90;99.90;;;;;;5067272;28;20447;-94
2021/11/10 10:24:52;;;;;;;32.47;18.17;;;6.80;99.90;;;;;;5047646;28;20077;-94
2021/11/10 10:27:29;;;;;;;31.98;18.27;;;6.50;99.90;;;;;;5050056;28;20120;-94
2021/11/10 10:30:31;;;;;;;32.63;18.65;;;6.70;99.90;;;;;;5068339;28;20120;-93
2021/11/10 10:33:09;;;;;;;34.17;17.30;;;6.90;99.90;;;;;;5048842;28;20045;-94
2021/11/10 10:35:47;;;;;;;31.77;17.20;;;6.90;99.90;;;;;;5066170;28;20070;-94
2021/11/10 10:38:19;;;;;;;30.58;17.35;;;6.80;99.90;;;;;;5069496;28;20029;-93
2021/11/10 10:40:47;;;;;;;31.55;17.25;;;7.30;99.90;;;;;;5049729;28;20481;-94
2021/11/10 10:43:14;;;;;;;31.40;17.05;;;7.00;99.90;;;;;;5067423;28;20523;-94
2021/11/10 10:45:48;;;;;;;28.77;16.58;;;6.50;99.90;;;;;;5049302;28;20012;-94
2021/11/10 10:48:20;;;;;;;30.88;17.48;;;6.40;99.90;;;;;;5050266;28;20521;-94
2021/11/10 10:50:55;;;;;;;31.95;17.55;;;6.50;99.90;;;;;;5051978;28;20554;-94
2021/11/10 10:53:31;;;;;;;30.45;17.30;;;6.70;99.90;;;;;;5072284;28;20119;-94
2021/11/10 10:55:57;;;;;;;31.77;18.73;;;6.50;99.90;;;;;;5065621;28;20038;-94
2021/11/10 10:58:36;;;;;;;28.88;17.55;;;6.60;99.90;;;;;;5065087;28;20040;-94
2021/11/10 11:01:17;;;;;;;41.17;24.80;;;6.50;99.90;;;;;;5068590;28;20037;-94
2021/11/10 11:04:10;;;;;;;25.08;15.57;;;6.40;99.90;;;;;;5067039;28;20036;-94
2021/11/10 11:06:57;;;;;;;24.90;14.82;;;6.40;99.90;;;;;;5055915;28;20083;-94
2021/11/10 11:09:27;;;;;;;26.20;15.27;;;6.50;99.90;;;;;;5060264;28;20030;-94
2021/11/10 11:12:21;;;;;;;25.92;15.25;;;6.70;99.90;;;;;;5034771;28;20041;-94
2021/11/10 11:14:55;;;;;;;24.02;15.05;;;6.80;99.90;;;;;;5066678;28;20056;-94
2021/11/10 11:17:31;;;;;;;23.02;14.55;;;7.10;99.90;;;;;;5071062;28;20032;-94
2021/11/10 11:20:10;;;;;;;26.85;15.77;;;7.10;99.90;;;;;;5065653;28;20036;-94
2021/11/10 11:22:50;;;;;;;26.70;16.27;;;7.00;99.90;;;;;;5067193;28;20029;-94
2021/11/10 11:25:17;;;;;;;25.70;15.48;;;6.90;99.90;;;;;;5049158;28;20020;-94
2021/11/10 11:27:57;;;;;;;28.02;17.08;;;7.00;99.90;;;;;;5066952;28;20036;-94
2021/11/10 11:30:28;;;;;;;29.35;16.33;;;7.10;99.90;;;;;;5066857;28;20036;-94
2021/11/10 11:32:57;;;;;;;28.25;15.70;;;7.10;99.90;;;;;;5053420;28;20064;-94
2021/11/10 11:35:35;;;;;;;27.63;16.70;;;7.00;99.90;;;;;;5075960;28;20025;-93
2021/11/10 11:38:10;;;;;;;26.50;16.55;;;7.50;99.90;;;;;;5069538;28;20382;-94
2021/11/10 11:40:36;;;;;;;25.10;15.48;;;6.90;99.90;;;;;;5070441;28;20603;-94
2021/11/10 11:43:04;;;;;;;27.42;16.00;;;6.90;99.90;;;;;;5070326;28;20028;-94
2021/11/10 11:45:33;;;;;;;26.42;16.35;;;6.70;99.90;;;;;;5069349;28;20054;-94
2021/11/10 11:47:59;;;;;;;27.08;17.08;;;7.40;99.90;;;;;;5052387;28;20035;-94
2021/11/10 11:50:26;;;;;;;27.52;16.88;;;7.10;99.90;;;;;;5075923;28;20082;-94
2021/11/10 11:52:52;;;;;;;25.02;16.63;;;7.20;99.90;;;;;;5071189;28;20044;-94
2021/11/10 11:55:23;;;;;;;31.95;17.58;;;7.30;99.90;;;;;;5070550;28;20044;-95
2021/11/10 11:58:03;;;;;;;30.20;18.13;;;7.30;99.90;;;;;;5068670;28;20115;-94
2021/11/10 12:00:35;;;;;;;43.90;31.80;;;7.30;99.90;;;;;;5051584;28;20028;-94
2021/11/10 12:03:03;;;;;;;27.95;17.73;;;7.20;99.90;;;;;;5036693;28;20035;-94
2021/11/10 12:05:29;;;;;;;27.50;16.85;;;7.60;99.90;;;;;;5076734;28;20021;-94
2021/11/10 12:07:57;;;;;;;28.55;17.80;;;7.20;99.90;;;;;;5052605;28;20063;-94
2021/11/10 12:10:23;;;;;;;26.90;18.48;;;7.20;99.90;;;;;;5068502;28;20016;-95
2021/11/10 12:13:08;;;;;;;27.27;17.50;;;7.30;99.90;;;;;;5067481;28;20039;-94
2021/11/10 12:16:06;;;;;;;24.92;16.33;;;7.20;99.90;;;;;;5069844;28;20054;-94
2021/11/10 12:18:43;;;;;;;25.67;15.82;;;7.20;99.90;;;;;;5044338;28;20024;-94
2021/11/10 12:21:10;;;;;;;23.40;15.13;;;7.00;99.90;;;;;;5021060;28;20398;-94
2021/11/10 12:23:50;;;;;;;32.28;21.73;;;6.90;99.90;;;;;;5053676;28;20024;-94
2021/11/10 12:26:17;;;;;;;21.10;14.65;;;7.50;99.90;;;;;;5074514;28;20111;-94
2021/11/10 12:28:59;;;;;;;28.30;17.48;;;7.00;99.90;;;;;;5050645;28;20485;-94
2021/11/10 12:31:36;;;;;;;25.27;17.38;;;6.90;99.90;;;;;;5067942;28;20036;-95
2021/11/10 12:34:25;;;;;;;26.83;16.35;;;7.10;99.90;;;;;;5069369;28;20035;-96
2021/11/10 12:36:54;;;;;;;23.42;15.55;;;7.10;99.90;;;;;;5035502;28;20037;-94
2021/11/10 12:39:40;;;;;;;25.45;18.10;;;7.00;99.90;;;;;;5070324;28;20091;-94
2021/11/10 12:42:07;;;;;;;23.38;16.33;;;6.90;99.90;;;;;;5038935;28;20029;-93
2021/11/10 12:44:39;;;;;;;24.77;16.08;;;7.00;99.90;;;;;;5069925;28;20035;-95